Time;durP1;ratioP1;P1;durP2;ratioP2;P2;SDS_P1;SDS_P2;PMS_P1;PMS_P2;Temp;Humidity;BMP_temperature;BMP_pressure;BME280_temperature;BME280_humidity;BME280_pressure;Samples;Min_cycle;Max_cycle;Signal;HPM_P1;HPM_P2
2022/11/29 00:00:32;;;;;;;23.48;12.98;;;;;;;;;;5103271;28;20347;-73
2022/11/29 00:03:17;;;;;;;24.05;12.75;;;;;;;;;;5118404;28;20031;-73
2022/11/29 00:06:07;;;;;;;25.50;13.93;;;;;;;;;;5116596;28;20011;-73
2022/11/29 00:08:53;;;;;;;23.90;13.27;;;;;;;;;;5118181;28;20020;-72
2022/11/29 00:14:44;;;;;;;23.33;13.07;;;;;;;;;;5116684;28;20466;-72
2022/11/29 00:17:30;;;;;;;22.63;12.23;;;;;;;;;;5117929;28;20451;-71
2022/11/29 00:20:15;;;;;;;22.58;13.15;;;;;;;;;;5116941;28;20447;-72
2022/11/29 00:23:01;;;;;;;24.88;14.07;;;;;;;;;;5117245;28;20088;-73
2022/11/29 00:25:47;;;;;;;24.67;13.55;;;;;;;;;;5116378;28;20073;-74
2022/11/29 00:28:33;;;;;;;24.90;13.48;;;;;;;;;;5116234;28;20034;-72
2022/11/29 00:31:19;;;;;;;25.10;13.40;;;;;;;;;;5102265;28;20356;-71
2022/11/29 00:34:05;;;;;;;25.10;13.40;;;;;;;;;;5116301;28;20031;-72
2022/11/29 00:36:51;;;;;;;24.90;13.40;;;;;;;;;;5116654;28;20054;-71
2022/11/29 00:39:36;;;;;;;22.02;12.55;;;;;;;;;;5116701;28;20023;-72
2022/11/29 00:42:22;;;;;;;27.17;14.15;;;;;;;;;;5116282;28;20008;-73
2022/11/29 00:45:08;;;;;;;26.98;13.35;;;;;;;;;;5115696;28;20349;-73
2022/11/29 00:47:53;;;;;;;21.92;13.13;;;;;;;;;;5116468;28;20028;-73
2022/11/29 00:50:39;;;;;;;23.67;12.90;;;;;;;;;;5116277;28;20059;-73
2022/11/29 00:53:25;;;;;;;24.60;12.88;;;;;;;;;;5117167;28;20106;-72
2022/11/29 00:56:11;;;;;;;23.15;12.95;;;;;;;;;;5116074;28;20022;-74
2022/11/29 00:58:56;;;;;;;24.73;13.15;;;;;;;;;;5115973;28;20107;-72
2022/11/29 01:01:42;;;;;;;23.75;13.07;;;;;;;;;;5118810;28;20462;-71
2022/11/29 01:04:27;;;;;;;22.42;13.23;;;;;;;;;;5118796;28;20062;-71
2022/11/29 01:07:13;;;;;;;23.75;13.07;;;;;;;;;;5103049;28;20352;-73
2022/11/29 01:09:59;;;;;;;25.60;13.57;;;;;;;;;;5102696;28;20027;-73
2022/11/29 01:12:44;;;;;;;25.25;13.50;;;;;;;;;;5116880;28;20035;-72
2022/11/29 01:15:30;;;;;;;27.20;14.35;;;;;;;;;;5115641;28;20008;-74
2022/11/29 01:18:15;;;;;;;25.95;13.63;;;;;;;;;;5101549;28;20092;-72
2022/11/29 01:21:03;;;;;;;23.77;12.75;;;;;;;;;;5114987;28;20023;-72
2022/11/29 01:23:50;;;;;;;25.15;13.50;;;;;;;;;;5116470;28;20043;-72
2022/11/29 01:26:35;;;;;;;24.67;13.32;;;;;;;;;;5101555;28;20403;-73
2022/11/29 01:29:21;;;;;;;24.38;13.30;;;;;;;;;;5116923;27;20100;-73
2022/11/29 01:32:07;;;;;;;23.48;12.88;;;;;;;;;;5114619;28;20055;-72
2022/11/29 01:34:52;;;;;;;23.58;12.75;;;;;;;;;;5115255;28;20027;-72
2022/11/29 01:37:38;;;;;;;28.10;14.35;;;;;;;;;;5119405;28;20036;-73
2022/11/29 01:40:23;;;;;;;21.80;12.45;;;;;;;;;;5115709;28;20336;-72
2022/11/29 01:43:18;;;;;;;28.25;13.98;;;;;;;;;;5101657;28;20367;-72
2022/11/29 01:46:03;;;;;;;26.40;14.00;;;;;;;;;;5116156;28;20020;-72
2022/11/29 01:48:50;;;;;;;27.25;13.88;;;;;;;;;;5114500;28;20047;-73
2022/11/29 01:51:37;;;;;;;24.83;14.32;;;;;;;;;;5115320;28;20076;-74
2022/11/29 01:54:23;;;;;;;26.05;14.43;;;;;;;;;;5115685;28;20480;-72
2022/11/29 01:57:09;;;;;;;26.67;14.52;;;;;;;;;;5114879;28;20027;-73
2022/11/29 01:59:58;;;;;;;27.98;14.32;;;;;;;;;;5115924;28;20345;-73
2022/11/29 02:02:55;;;;;;;28.92;14.00;;;;;;;;;;5104059;28;20361;-73
2022/11/29 02:05:43;;;;;;;28.15;14.70;;;;;;;;;;5117673;28;20117;-72
2022/11/29 02:08:32;;;;;;;27.02;14.93;;;;;;;;;;5115018;28;20020;-72
2022/11/29 02:11:36;;;;;;;25.27;14.68;;;;;;;;;;5115274;28;20374;-73
2022/11/29 02:14:22;;;;;;;28.67;15.00;;;;;;;;;;5115530;28;20039;-72
2022/11/29 02:17:07;;;;;;;31.33;16.15;;;;;;;;;;5114555;28;20024;-74
2022/11/29 02:19:53;;;;;;;28.52;14.98;;;;;;;;;;5114521;28;20042;-72
2022/11/29 02:22:54;;;;;;;27.17;15.82;;;;;;;;;;5114203;28;20016;-72
2022/11/29 02:25:39;;;;;;;32.28;15.25;;;;;;;;;;5115078;28;20348;-72
2022/11/29 02:28:44;;;;;;;29.40;15.68;;;;;;;;;;5107375;28;20427;-72
2022/11/29 02:31:50;;;;;;;27.23;14.98;;;;;;;;;;5100417;28;20029;-73
2022/11/29 02:34:50;;;;;;;28.00;15.02;;;;;;;;;;5063453;28;20035;-73
2022/11/29 02:37:45;;;;;;;28.25;15.15;;;;;;;;;;5114293;28;20443;-73
2022/11/29 02:40:36;;;;;;;31.42;16.52;;;;;;;;;;5114568;28;20031;-73
2022/11/29 02:43:31;;;;;;;27.90;15.27;;;;;;;;;;5114367;28;20095;-72
2022/11/29 02:46:41;;;;;;;35.13;15.45;;;;;;;;;;5114576;28;20062;-72
2022/11/29 02:49:29;;;;;;;28.00;15.57;;;;;;;;;;5114505;28;20027;-72
2022/11/29 02:52:24;;;;;;;30.55;15.40;;;;;;;;;;5114119;28;20016;-72
2022/11/29 02:55:35;;;;;;;26.60;15.38;;;;;;;;;;5114926;28;20049;-73
2022/11/29 02:58:30;;;;;;;29.58;16.00;;;;;;;;;;5114777;28;20156;-72
2022/11/29 03:01:25;;;;;;;28.67;15.38;;;;;;;;;;5114271;28;20545;-73
2022/11/29 03:04:29;;;;;;;27.63;15.70;;;;;;;;;;5100230;28;20435;-72
2022/11/29 03:07:38;;;;;;;28.33;15.35;;;;;;;;;;5115154;28;20106;-73
2022/11/29 03:10:42;;;;;;;27.33;15.25;;;;;;;;;;5119224;28;20019;-73
2022/11/29 03:13:46;;;;;;;29.15;16.10;;;;;;;;;;5104742;28;20080;-72
2022/11/29 03:16:44;;;;;;;32.67;16.08;;;;;;;;;;5104103;28;20088;-72
2022/11/29 03:19:48;;;;;;;27.17;15.57;;;;;;;;;;5117977;28;20019;-73
2022/11/29 03:22:52;;;;;;;28.02;15.57;;;;;;;;;;5118522;28;20023;-73
2022/11/29 03:25:41;;;;;;;29.98;16.40;;;;;;;;;;5103801;28;20042;-73
2022/11/29 03:28:42;;;;;;;29.67;16.08;;;;;;;;;;5104593;28;20157;-73
2022/11/29 03:31:30;;;;;;;30.75;16.38;;;;;;;;;;5117650;28;20023;-73
2022/11/29 03:34:35;;;;;;;31.95;16.52;;;;;;;;;;5116537;28;20137;-74
2022/11/29 03:37:41;;;;;;;31.63;17.15;;;;;;;;;;5103887;28;20073;-72
2022/11/29 03:40:30;;;;;;;31.58;16.50;;;;;;;;;;5081046;28;20402;-73
2022/11/29 03:43:18;;;;;;;32.78;17.30;;;;;;;;;;5109307;28;20023;-74
2022/11/29 03:46:07;;;;;;;29.80;16.75;;;;;;;;;;5117893;28;20464;-72
2022/11/29 03:49:01;;;;;;;31.10;16.48;;;;;;;;;;5117869;28;20024;-72
2022/11/29 03:51:56;;;;;;;32.55;17.95;;;;;;;;;;5117772;28;20063;-73
2022/11/29 03:54:52;;;;;;;32.53;17.85;;;;;;;;;;5116854;28;20148;-73
2022/11/29 03:57:37;;;;;;;32.05;17.20;;;;;;;;;;5103442;28;20042;-73
2022/11/29 04:00:23;;;;;;;31.17;16.25;;;;;;;;;;5103527;28;20162;-72
2022/11/29 04:03:27;;;;;;;34.80;17.50;;;;;;;;;;5103950;28;20114;-73
2022/11/29 04:06:13;;;;;;;30.38;16.40;;;;;;;;;;5102848;28;20344;-73
2022/11/29 04:09:11;;;;;;;33.75;17.58;;;;;;;;;;5116808;28;20078;-72
2022/11/29 04:12:09;;;;;;;32.10;17.30;;;;;;;;;;5103281;28;20110;-73
2022/11/29 04:15:07;;;;;;;29.83;16.95;;;;;;;;;;5116792;28;20044;-72
2022/11/29 04:17:52;;;;;;;33.97;17.70;;;;;;;;;;5117237;28;20398;-71
2022/11/29 04:20:47;;;;;;;30.50;16.85;;;;;;;;;;5102810;28;20376;-72
2022/11/29 04:23:51;;;;;;;34.67;17.88;;;;;;;;;;5103631;28;20034;-71
2022/11/29 04:26:55;;;;;;;30.33;15.98;;;;;;;;;;5102935;28;20023;-71
2022/11/29 04:29:47;;;;;;;32.28;16.42;;;;;;;;;;5102685;28;20016;-71
2022/11/29 04:32:41;;;;;;;32.95;16.73;;;;;;;;;;5103350;28;20360;-72
2022/11/29 04:35:30;;;;;;;33.03;18.00;;;;;;;;;;5116297;28;20072;-71
2022/11/29 04:38:41;;;;;;;32.97;17.33;;;;;;;;;;5116174;28;20100;-71
2022/11/29 04:41:33;;;;;;;33.75;16.77;;;;;;;;;;5115710;28;20031;-70
2022/11/29 04:44:37;;;;;;;34.17;17.23;;;;;;;;;;5116784;28;20024;-72
2022/11/29 04:47:23;;;;;;;31.27;16.85;;;;;;;;;;5115534;28;20024;-70
2022/11/29 04:50:09;;;;;;;30.58;16.60;;;;;;;;;;5103073;28;20444;-71
2022/11/29 04:53:02;;;;;;;34.17;17.52;;;;;;;;;;5102736;28;20063;-71
2022/11/29 04:56:07;;;;;;;30.05;16.52;;;;;;;;;;5102902;28;20027;-70
2022/11/29 04:59:06;;;;;;;33.50;16.70;;;;;;;;;;5116401;28;20019;-71
2022/11/29 05:02:01;;;;;;;31.30;16.50;;;;;;;;;;5102792;28;20447;-72
2022/11/29 05:04:55;;;;;;;30.10;16.25;;;;;;;;;;5102205;28;20372;-72
2022/11/29 05:07:47;;;;;;;31.50;16.80;;;;;;;;;;5102530;28;20042;-71
2022/11/29 05:10:37;;;;;;;30.13;16.38;;;;;;;;;;5115779;28;20436;-74
2022/11/29 05:13:34;;;;;;;34.90;18.08;;;;;;;;;;5102581;28;20096;-72
2022/11/29 05:16:29;;;;;;;33.00;17.08;;;;;;;;;;5102251;28;20066;-72
2022/11/29 05:19:33;;;;;;;32.53;16.52;;;;;;;;;;5102286;28;20019;-71
2022/11/29 05:22:18;;;;;;;31.45;17.23;;;;;;;;;;5102383;28;20031;-73
2022/11/29 05:25:24;;;;;;;31.90;16.88;;;;;;;;;;5101417;28;20329;-71
2022/11/29 05:28:23;;;;;;;32.90;17.38;;;;;;;;;;5097644;28;20174;-72
2022/11/29 05:31:12;;;;;;;31.23;16.52;;;;;;;;;;5114529;28;20031;-74
2022/11/29 05:34:16;;;;;;;31.45;17.15;;;;;;;;;;5115024;28;20077;-73
2022/11/29 05:37:14;;;;;;;31.15;16.95;;;;;;;;;;5101054;28;20044;-72
2022/11/29 05:40:18;;;;;;;31.27;16.17;;;;;;;;;;5114685;28;20012;-71
2022/11/29 05:43:33;;;;;;;32.40;17.20;;;;;;;;;;5100943;28;20016;-72
2022/11/29 05:46:27;;;;;;;30.08;16.20;;;;;;;;;;5040204;28;20030;-74
2022/11/29 05:49:13;;;;;;;33.97;17.85;;;;;;;;;;5101946;28;20447;-72
2022/11/29 05:52:17;;;;;;;31.70;17.65;;;;;;;;;;5114994;28;20075;-74
2022/11/29 05:55:06;;;;;;;33.90;18.27;;;;;;;;;;5115506;28;20107;-72
2022/11/29 05:57:57;;;;;;;30.92;16.70;;;;;;;;;;5101468;28;20016;-73
2022/11/29 06:00:50;;;;;;;30.27;16.80;;;;;;;;;;5100954;28;20114;-73
2022/11/29 06:03:39;;;;;;;30.95;16.70;;;;;;;;;;5101882;28;20020;-75
2022/11/29 06:06:30;;;;;;;34.88;17.58;;;;;;;;;;5101368;28;20329;-72
2022/11/29 06:09:21;;;;;;;32.08;17.73;;;;;;;;;;5114754;28;20478;-72
2022/11/29 06:12:15;;;;;;;29.75;16.05;;;;;;;;;;5114805;28;20344;-72
2022/11/29 06:15:36;;;;;;;31.10;17.23;;;;;;;;;;5115487;28;20180;-72
2022/11/29 06:18:22;;;;;;;34.58;16.58;;;;;;;;;;5013775;28;20032;-72
2022/11/29 06:21:21;;;;;;;32.47;17.00;;;;;;;;;;5116944;28;20073;-72
2022/11/29 06:24:19;;;;;;;30.50;16.80;;;;;;;;;;5102422;28;20020;-73
2022/11/29 06:27:12;;;;;;;34.78;17.17;;;;;;;;;;5101300;28;20019;-74
2022/11/29 06:30:11;;;;;;;36.40;18.25;;;;;;;;;;5100288;28;20106;-71
2022/11/29 06:33:02;;;;;;;32.58;17.35;;;;;;;;;;5114243;28;20435;-72
2022/11/29 06:36:06;;;;;;;32.90;17.08;;;;;;;;;;5100330;28;20023;-73
2022/11/29 06:38:51;;;;;;;32.42;17.30;;;;;;;;;;5115381;28;20040;-72
2022/11/29 06:41:37;;;;;;;33.42;17.33;;;;;;;;;;5102603;28;20011;-73
2022/11/29 06:44:23;;;;;;;36.05;17.77;;;;;;;;;;5116477;28;20156;-72
2022/11/29 06:47:20;;;;;;;33.05;16.70;;;;;;;;;;5115786;28;20088;-73
2022/11/29 06:50:09;;;;;;;34.65;17.75;;;;;;;;;;5102270;28;20019;-74
2022/11/29 06:53:15;;;;;;;38.15;18.45;;;;;;;;;;5114395;28;20027;-72
2022/11/29 06:56:03;;;;;;;36.78;18.08;;;;;;;;;;5117254;28;20035;-72
2022/11/29 06:58:58;;;;;;;31.88;16.92;;;;;;;;;;5120304;28;20027;-73
2022/11/29 07:01:46;;;;;;;36.35;18.65;;;;;;;;;;5114999;28;20027;-72
2022/11/29 07:04:55;;;;;;;37.88;19.10;;;;;;;;;;5108862;28;20020;-73
2022/11/29 07:07:41;;;;;;;33.72;17.95;;;;;;;;;;5068352;28;20046;-73
2022/11/29 07:10:28;;;;;;;33.10;17.63;;;;;;;;;;5100746;28;20114;-72
2022/11/29 07:13:13;;;;;;;36.08;18.77;;;;;;;;;;5114385;28;20024;-71
2022/11/29 07:16:10;;;;;;;36.10;18.25;;;;;;;;;;5112719;28;20352;-72
2022/11/29 07:19:14;;;;;;;37.22;19.40;;;;;;;;;;5114597;28;20451;-72
2022/11/29 07:22:26;;;;;;;33.35;17.98;;;;;;;;;;5100274;28;20196;-72
2022/11/29 07:25:30;;;;;;;38.55;18.00;;;;;;;;;;5114787;28;20020;-73
2022/11/29 07:28:28;;;;;;;37.33;18.95;;;;;;;;;;5114081;28;20448;-72
2022/11/29 07:31:28;;;;;;;36.75;18.75;;;;;;;;;;5100265;28;20111;-72
2022/11/29 07:34:32;;;;;;;31.42;17.20;;;;;;;;;;5113246;28;20054;-74
2022/11/29 07:37:30;;;;;;;33.83;16.80;;;;;;;;;;5113474;28;20044;-72
2022/11/29 07:40:21;;;;;;;33.47;17.25;;;;;;;;;;5113175;28;20478;-72
2022/11/29 07:43:06;;;;;;;35.03;17.85;;;;;;;;;;5114262;28;20032;-72
2022/11/29 07:45:52;;;;;;;35.88;18.55;;;;;;;;;;5113240;28;20047;-71
2022/11/29 07:48:38;;;;;;;37.10;18.60;;;;;;;;;;5113895;28;20030;-72
2022/11/29 07:51:24;;;;;;;35.58;18.80;;;;;;;;;;5099522;28;20131;-72
2022/11/29 07:54:12;;;;;;;35.38;18.38;;;;;;;;;;5100382;28;20020;-72
2022/11/29 07:56:57;;;;;;;32.80;17.90;;;;;;;;;;5117421;28;20046;-72
2022/11/29 07:59:43;;;;;;;36.22;19.02;;;;;;;;;;5116697;28;20012;-72
2022/11/29 08:02:29;;;;;;;31.92;17.02;;;;;;;;;;5117547;28;20024;-72
2022/11/29 08:05:15;;;;;;;31.92;17.20;;;;;;;;;;5117548;28;20036;-71
2022/11/29 08:08:01;;;;;;;34.30;17.08;;;;;;;;;;5116621;28;20024;-72
2022/11/29 08:10:46;;;;;;;35.08;16.65;;;;;;;;;;5117523;28;20055;-71
2022/11/29 08:13:32;;;;;;;33.20;17.30;;;;;;;;;;5116580;28;20080;-71
2022/11/29 08:16:18;;;;;;;35.65;18.02;;;;;;;;;;5117298;28;20020;-71
2022/11/29 08:19:03;;;;;;;33.60;17.70;;;;;;;;;;5116103;28;20023;-75
2022/11/29 08:21:50;;;;;;;32.30;17.10;;;;;;;;;;5116678;28;20012;-71
2022/11/29 08:24:35;;;;;;;33.95;17.77;;;;;;;;;;5102132;28;20459;-70
2022/11/29 08:27:21;;;;;;;32.55;17.02;;;;;;;;;;5116464;28;20041;-70
2022/11/29 08:30:07;;;;;;;32.65;17.20;;;;;;;;;;5115851;28;20028;-72
2022/11/29 08:32:52;;;;;;;31.63;17.10;;;;;;;;;;5102848;28;20023;-71
2022/11/29 08:35:38;;;;;;;33.47;17.27;;;;;;;;;;5116198;28;20332;-71
2022/11/29 08:38:24;;;;;;;31.13;16.83;;;;;;;;;;5116821;28;20071;-71
2022/11/29 08:41:11;;;;;;;34.15;17.70;;;;;;;;;;5103244;28;20134;-71
2022/11/29 08:43:56;;;;;;;34.03;16.85;;;;;;;;;;5116911;28;20020;-71
2022/11/29 08:50:01;;;;;;;32.88;17.00;;;;;;;;;;5121893;28;20513;-71
2022/11/29 08:55:52;;;;;;;30.88;16.67;;;;;;;;;;5124030;28;20015;-71
2022/11/29 08:58:38;;;;;;;33.85;17.15;;;;;;;;;;5130058;28;20020;-72
2022/11/29 09:01:24;;;;;;;33.85;17.00;;;;;;;;;;5125783;28;20386;-68
2022/11/29 09:04:09;;;;;;;32.88;17.42;;;;;;;;;;5116205;28;20107;-67
2022/11/29 09:06:55;;;;;;;36.83;18.10;;;;;;;;;;5115632;28;20363;-68
2022/11/29 09:09:41;;;;;;;31.83;17.15;;;;;;;;;;5115096;28;20024;-68
2022/11/29 09:12:26;;;;;;;35.58;17.77;;;;;;;;;;5116078;28;20083;-67
2022/11/29 09:15:12;;;;;;;33.38;16.70;;;;;;;;;;5116221;28;20088;-68
2022/11/29 09:17:57;;;;;;;31.90;17.27;;;;;;;;;;5115545;28;20066;-68
2022/11/29 09:20:43;;;;;;;28.90;15.63;;;;;;;;;;5115312;28;20038;-67
2022/11/29 09:23:29;;;;;;;33.55;18.05;;;;;;;;;;5115440;28;20058;-67
2022/11/29 09:26:16;;;;;;;30.00;16.33;;;;;;;;;;5116678;28;20024;-67
2022/11/29 09:29:03;;;;;;;34.55;17.65;;;;;;;;;;5115754;28;20436;-69
2022/11/29 09:31:49;;;;;;;33.30;17.13;;;;;;;;;;5115520;28;20106;-68
2022/11/29 09:34:34;;;;;;;30.15;16.70;;;;;;;;;;5101744;28;20092;-68
2022/11/29 09:37:20;;;;;;;29.10;15.38;;;;;;;;;;5100765;28;20047;-68
2022/11/29 09:40:06;;;;;;;31.92;15.75;;;;;;;;;;5114680;28;20015;-67
2022/11/29 09:42:59;;;;;;;32.13;17.42;;;;;;;;;;5116016;28;20020;-68
2022/11/29 09:45:48;;;;;;;25.88;14.93;;;;;;;;;;5115244;28;20024;-68
2022/11/29 09:48:52;;;;;;;28.00;15.38;;;;;;;;;;5119025;28;20051;-75
2022/11/29 09:51:38;;;;;;;24.23;14.25;;;;;;;;;;5102265;28;20050;-72
2022/11/29 09:54:42;;;;;;;26.63;14.50;;;;;;;;;;5103999;28;20020;-76
2022/11/29 09:57:29;;;;;;;26.45;13.82;;;;;;;;;;5104239;28;20204;-76
2022/11/29 10:00:16;;;;;;;25.52;14.55;;;;;;;;;;5101450;28;20019;-71
2022/11/29 10:03:08;;;;;;;23.73;13.82;;;;;;;;;;5115009;28;20023;-71
2022/11/29 10:05:57;;;;;;;23.35;13.18;;;;;;;;;;5115021;28;20163;-71
2022/11/29 10:08:46;;;;;;;26.05;14.57;;;;;;;;;;5115466;28;20103;-70
2022/11/29 10:12:01;;;;;;;28.88;15.25;;;;;;;;;;5115070;28;20020;-71
2022/11/29 10:14:50;;;;;;;22.50;13.05;;;;;;;;;;5106988;28;20043;-70
2022/11/29 10:17:38;;;;;;;23.83;12.90;;;;;;;;;;5113584;28;20019;-69
2022/11/29 10:20:25;;;;;;;21.83;12.77;;;;;;;;;;5115159;28;20376;-68
2022/11/29 10:23:14;;;;;;;19.50;11.18;;;;;;;;;;5115112;28;20084;-70
2022/11/29 10:25:59;;;;;;;23.35;12.98;;;;;;;;;;5113941;28;20024;-70
2022/11/29 10:28:47;;;;;;;24.55;13.25;;;;;;;;;;5116365;28;20444;-71
2022/11/29 10:31:38;;;;;;;21.73;12.02;;;;;;;;;;5115053;28;20027;-72
2022/11/29 10:34:25;;;;;;;22.45;12.02;;;;;;;;;;5101001;28;20128;-72
2022/11/29 10:37:16;;;;;;;23.35;12.43;;;;;;;;;;5114671;28;20047;-72
2022/11/29 10:40:05;;;;;;;23.05;13.27;;;;;;;;;;5115187;28;20019;-71
2022/11/29 10:42:52;;;;;;;22.65;11.65;;;;;;;;;;5114656;28;20027;-71
2022/11/29 10:45:44;;;;;;;22.60;12.30;;;;;;;;;;5100784;28;20073;-72
2022/11/29 10:48:32;;;;;;;26.10;12.68;;;;;;;;;;5101021;28;20351;-72
2022/11/29 10:51:18;;;;;;;19.25;11.07;;;;;;;;;;5114515;28;20031;-72
2022/11/29 10:54:23;;;;;;;20.67;12.07;;;;;;;;;;5113901;28;20355;-72
2022/11/29 10:57:14;;;;;;;22.58;12.18;;;;;;;;;;5100348;28;20032;-72
2022/11/29 11:00:02;;;;;;;24.35;12.07;;;;;;;;;;5113509;28;20016;-72
2022/11/29 11:02:48;;;;;;;23.23;12.45;;;;;;;;;;5115248;28;20110;-72
2022/11/29 11:05:34;;;;;;;23.63;12.63;;;;;;;;;;5114233;28;20024;-72
2022/11/29 11:08:19;;;;;;;18.50;11.35;;;;;;;;;;5100137;28;20016;-72
2022/11/29 11:11:06;;;;;;;21.73;12.40;;;;;;;;;;5100821;28;20028;-71
2022/11/29 11:13:58;;;;;;;25.45;13.20;;;;;;;;;;5114701;28;20359;-72
2022/11/29 11:16:43;;;;;;;20.52;11.82;;;;;;;;;;5113801;28;20020;-72
2022/11/29 11:19:31;;;;;;;23.17;12.55;;;;;;;;;;5117525;28;20023;-72
2022/11/29 11:22:20;;;;;;;23.55;13.27;;;;;;;;;;5119225;28;20039;-71
2022/11/29 11:25:23;;;;;;;21.42;12.43;;;;;;;;;;5126443;28;20027;-73
2022/11/29 11:28:12;;;;;;;25.88;13.85;;;;;;;;;;5100265;28;20024;-72
2022/11/29 11:31:02;;;;;;;21.85;12.80;;;;;;;;;;5118912;28;20027;-73
2022/11/29 11:33:47;;;;;;;19.75;11.77;;;;;;;;;;5117534;28;20020;-72
2022/11/29 11:36:33;;;;;;;22.17;12.63;;;;;;;;;;5117010;28;20471;-74
2022/11/29 11:39:20;;;;;;;24.63;14.10;;;;;;;;;;5118354;28;20417;-74
2022/11/29 11:45:14;;;;;;;23.13;12.98;;;;;;;;;;5126207;28;20016;-70
2022/11/29 11:48:13;;;;;;;22.60;13.68;;;;;;;;;;5120959;28;20116;-73
2022/11/29 11:50:59;;;;;;;20.90;12.90;;;;;;;;;;5117872;28;20030;-72
2022/11/29 11:53:47;;;;;;;44.42;24.35;;;;;;;;;;5117662;28;20035;-72
2022/11/29 11:56:34;;;;;;;22.30;12.35;;;;;;;;;;5118174;28;20348;-71
2022/11/29 11:59:22;;;;;;;20.38;11.82;;;;;;;;;;5117595;28;20027;-72
2022/11/29 12:02:28;;;;;;;20.42;12.65;;;;;;;;;;5117864;28;20073;-71
2022/11/29 12:05:18;;;;;;;16.92;10.52;;;;;;;;;;5103460;28;20034;-73
2022/11/29 12:08:03;;;;;;;17.38;10.02;;;;;;;;;;5117816;28;20019;-72
2022/11/29 12:10:51;;;;;;;21.15;11.80;;;;;;;;;;5103603;28;20038;-72
2022/11/29 12:13:39;;;;;;;21.25;12.25;;;;;;;;;;5117379;28;20023;-72
2022/11/29 12:16:28;;;;;;;18.65;10.80;;;;;;;;;;5102952;28;20038;-72
2022/11/29 12:19:17;;;;;;;20.88;11.30;;;;;;;;;;5103274;28;20058;-73
2022/11/29 12:22:06;;;;;;;20.17;11.85;;;;;;;;;;5103036;28;20023;-72
2022/11/29 12:24:56;;;;;;;22.60;11.65;;;;;;;;;;5101313;28;20023;-72
2022/11/29 12:27:41;;;;;;;25.23;13.18;;;;;;;;;;5102395;28;20019;-72
2022/11/29 12:30:27;;;;;;;24.38;12.15;;;;;;;;;;5116449;28;20011;-72
2022/11/29 12:33:18;;;;;;;22.60;12.70;;;;;;;;;;5117608;28;20111;-71
2022/11/29 12:36:04;;;;;;;23.42;13.60;;;;;;;;;;5115887;28;20019;-71
2022/11/29 12:39:06;;;;;;;23.52;12.40;;;;;;;;;;5096353;28;20059;-72
2022/11/29 12:42:02;;;;;;;25.38;11.82;;;;;;;;;;5096728;28;20012;-74
2022/11/29 12:44:47;;;;;;;22.67;12.80;;;;;;;;;;5082147;28;20028;-73
2022/11/29 12:47:56;;;;;;;21.27;12.55;;;;;;;;;;5097103;28;20098;-73
2022/11/29 12:50:41;;;;;;;23.33;12.70;;;;;;;;;;5081881;28;20020;-72
2022/11/29 12:53:39;;;;;;;23.17;12.45;;;;;;;;;;5097064;28;20091;-75
2022/11/29 12:56:26;;;;;;;22.63;12.52;;;;;;;;;;5081328;28;20046;-73
2022/11/29 12:59:12;;;;;;;25.58;13.70;;;;;;;;;;5096278;28;20102;-72
2022/11/29 13:01:57;;;;;;;24.92;12.98;;;;;;;;;;5096582;28;20031;-73
2022/11/29 13:04:47;;;;;;;20.52;12.27;;;;;;;;;;5081768;28;20020;-75
2022/11/29 13:07:33;;;;;;;22.40;12.95;;;;;;;;;;5080994;28;20024;-72
2022/11/29 13:10:32;;;;;;;21.45;12.30;;;;;;;;;;5080720;28;20012;-74
2022/11/29 13:13:37;;;;;;;18.83;12.02;;;;;;;;;;5096082;28;20032;-73
2022/11/29 13:16:37;;;;;;;21.73;12.18;;;;;;;;;;5094820;28;20027;-73
2022/11/29 13:19:41;;;;;;;18.45;10.32;;;;;;;;;;5081693;28;20051;-73
2022/11/29 13:22:39;;;;;;;32.65;18.70;;;;;;;;;;5095432;28;20024;-73
2022/11/29 13:25:24;;;;;;;23.20;14.43;;;;;;;;;;5087878;28;20016;-74
2022/11/29 13:28:15;;;;;;;23.13;14.80;;;;;;;;;;5081092;28;20077;-74
2022/11/29 13:31:03;;;;;;;19.38;10.93;;;;;;;;;;5095823;28;20024;-75
2022/11/29 13:33:56;;;;;;;16.75;10.23;;;;;;;;;;5081246;28;20066;-72
2022/11/29 13:36:47;;;;;;;15.48;9.60;;;;;;;;;;5098602;28;20040;-74
2022/11/29 13:39:51;;;;;;;17.70;10.55;;;;;;;;;;5102114;28;20016;-72
2022/11/29 13:42:55;;;;;;;15.60;10.30;;;;;;;;;;5115575;28;20023;-73
2022/11/29 13:46:00;;;;;;;16.23;9.82;;;;;;;;;;5102175;28;20035;-77
2022/11/29 13:48:47;;;;;;;15.45;9.68;;;;;;;;;;5115676;28;20023;-73
2022/11/29 13:51:36;;;;;;;14.95;9.50;;;;;;;;;;5114046;28;20359;-72
2022/11/29 13:54:32;;;;;;;14.50;9.13;;;;;;;;;;5115072;28;20031;-72
2022/11/29 13:57:20;;;;;;;15.13;9.48;;;;;;;;;;5101907;28;20027;-75
2022/11/29 14:00:06;;;;;;;14.82;9.27;;;;;;;;;;5115728;28;20068;-76
2022/11/29 14:02:56;;;;;;;14.75;9.80;;;;;;;;;;5115403;28;20034;-77
2022/11/29 14:05:42;;;;;;;16.10;9.35;;;;;;;;;;5101105;28;20015;-72
2022/11/29 14:08:30;;;;;;;15.20;9.23;;;;;;;;;;5115154;28;20044;-75
2022/11/29 14:11:15;;;;;;;19.75;9.85;;;;;;;;;;5115592;28;20444;-76
2022/11/29 14:14:01;;;;;;;17.98;10.85;;;;;;;;;;5100812;28;20367;-76
2022/11/29 14:17:06;;;;;;;16.83;9.77;;;;;;;;;;5100927;28;20058;-76
2022/11/29 14:20:11;;;;;;;17.90;11.32;;;;;;;;;;5115334;28;20097;-77
2022/11/29 14:23:03;;;;;;;15.85;9.52;;;;;;;;;;5099678;28;20012;-75
2022/11/29 14:25:55;;;;;;;15.38;9.18;;;;;;;;;;5113899;28;20016;-73
2022/11/29 14:28:41;;;;;;;18.00;10.52;;;;;;;;;;5114948;28;20019;-76
2022/11/29 14:31:47;;;;;;;18.67;11.43;;;;;;;;;;5101039;28;20463;-76
2022/11/29 14:34:35;;;;;;;17.27;10.20;;;;;;;;;;5100499;28;20444;-76
2022/11/29 14:37:41;;;;;;;17.58;11.02;;;;;;;;;;5100309;28;20043;-73
2022/11/29 14:40:32;;;;;;;18.55;11.90;;;;;;;;;;5096782;28;20031;-74
2022/11/29 14:43:24;;;;;;;20.23;11.48;;;;;;;;;;5116258;28;20020;-73
2022/11/29 14:46:13;;;;;;;20.70;12.32;;;;;;;;;;5116656;28;20156;-72
2022/11/29 14:49:00;;;;;;;20.13;12.00;;;;;;;;;;5113856;28;20023;-73
2022/11/29 14:52:04;;;;;;;23.25;12.70;;;;;;;;;;5100886;28;20344;-73
2022/11/29 14:54:58;;;;;;;24.30;13.77;;;;;;;;;;5114366;28;20020;-73
2022/11/29 14:57:43;;;;;;;24.17;13.55;;;;;;;;;;5100193;28;20023;-73
2022/11/29 15:00:33;;;;;;;29.00;14.25;;;;;;;;;;5114994;28;20016;-74
2022/11/29 15:03:28;;;;;;;24.48;13.38;;;;;;;;;;5100810;28;20091;-73
2022/11/29 15:06:24;;;;;;;22.80;12.60;;;;;;;;;;5118449;28;20030;-73
2022/11/29 15:09:19;;;;;;;24.20;14.23;;;;;;;;;;5119050;28;20107;-73
2022/11/29 15:12:11;;;;;;;30.30;15.48;;;;;;;;;;5105558;28;20023;-73
2022/11/29 15:14:56;;;;;;;34.20;17.45;;;;;;;;;;5118554;28;20024;-73
2022/11/29 15:17:42;;;;;;;35.72;20.30;;;;;;;;;;5104693;28;20437;-74
2022/11/29 15:20:49;;;;;;;24.98;13.95;;;;;;;;;;5104894;28;20026;-73
2022/11/29 15:23:40;;;;;;;25.95;13.70;;;;;;;;;;5100935;28;20058;-74
2022/11/29 15:26:26;;;;;;;29.08;14.63;;;;;;;;;;5090326;28;20016;-72
2022/11/29 15:29:20;;;;;;;32.47;15.60;;;;;;;;;;5119202;28;20061;-72
2022/11/29 15:32:06;;;;;;;27.33;14.52;;;;;;;;;;5118442;28;20057;-72
2022/11/29 15:34:55;;;;;;;34.85;21.00;;;;;;;;;;5102988;28;20107;-73
2022/11/29 15:37:43;;;;;;;28.60;16.35;;;;;;;;;;5103914;28;20086;-72
2022/11/29 15:40:37;;;;;;;27.58;14.50;;;;;;;;;;5103934;28;20033;-71
2022/11/29 15:43:33;;;;;;;31.73;17.88;;;;;;;;;;5104356;28;20020;-73
2022/11/29 15:46:20;;;;;;;44.85;23.77;;;;;;;;;;5117704;28;20030;-73
2022/11/29 15:49:15;;;;;;;30.95;16.63;;;;;;;;;;5117029;28;20076;-73
2022/11/29 15:52:04;;;;;;;33.15;16.38;;;;;;;;;;5117606;28;20030;-71
2022/11/29 15:54:53;;;;;;;33.80;18.55;;;;;;;;;;5117283;28;20055;-73
2022/11/29 15:57:41;;;;;;;31.42;17.10;;;;;;;;;;5103615;28;20476;-74
2022/11/29 16:00:29;;;;;;;33.45;17.02;;;;;;;;;;5118916;28;20314;-72
2022/11/29 16:03:20;;;;;;;32.38;17.08;;;;;;;;;;5118637;28;20012;-72
2022/11/29 16:06:08;;;;;;;31.98;16.17;;;;;;;;;;5094769;28;20046;-73
2022/11/29 16:08:54;;;;;;;34.75;17.75;;;;;;;;;;5118234;28;20023;-72
2022/11/29 16:11:40;;;;;;;35.95;17.42;;;;;;;;;;5116787;28;20019;-73
2022/11/29 16:14:27;;;;;;;38.67;20.02;;;;;;;;;;5116847;28;20320;-73
2022/11/29 16:17:12;;;;;;;38.38;19.10;;;;;;;;;;5117619;28;20028;-72
2022/11/29 16:20:13;;;;;;;35.28;16.52;;;;;;;;;;5116839;28;20097;-73
2022/11/29 16:23:12;;;;;;;35.80;18.23;;;;;;;;;;5116312;28;20023;-72
2022/11/29 16:26:00;;;;;;;34.13;16.23;;;;;;;;;;5117885;28;20022;-75
2022/11/29 16:28:48;;;;;;;35.72;17.73;;;;;;;;;;5089361;28;20410;-73
2022/11/29 16:31:35;;;;;;;33.22;16.42;;;;;;;;;;5117834;28;20055;-73
2022/11/29 16:34:24;;;;;;;39.92;21.17;;;;;;;;;;5117734;28;20011;-74
2022/11/29 16:37:17;;;;;;;30.92;16.30;;;;;;;;;;5117107;28;20051;-72
2022/11/29 16:40:03;;;;;;;31.17;16.48;;;;;;;;;;5117181;28;20030;-73
2022/11/29 16:43:04;;;;;;;33.13;16.95;;;;;;;;;;5102374;28;20038;-73
2022/11/29 16:46:09;;;;;;;33.88;17.25;;;;;;;;;;5116270;28;20042;-73
2022/11/29 16:48:56;;;;;;;31.30;17.27;;;;;;;;;;5101502;28;20171;-72
2022/11/29 16:51:44;;;;;;;34.58;17.27;;;;;;;;;;5116670;28;20047;-74